sensor_id;sensor_type;location;lat;lon;timestamp;temperature;humidity
4209;DHT22;36320;48.860;2.380;2023-04-24T00:01:47;12.40;74.10
4209;DHT22;36320;48.860;2.380;2023-04-24T00:04:13;12.50;74.30
4209;DHT22;36320;48.860;2.380;2023-04-24T00:06:42;12.30;74.10
4209;DHT22;36320;48.860;2.380;2023-04-24T00:09:08;12.40;74.40
4209;DHT22;36320;48.860;2.380;2023-04-24T00:11:36;12.30;74.30
4209;DHT22;36320;48.860;2.380;2023-04-24T00:14:02;12.30;74.50
4209;DHT22;36320;48.860;2.380;2023-04-24T00:16:28;12.30;74.60
4209;DHT22;36320;48.860;2.380;2023-04-24T00:18:54;12.30;74.80
4209;DHT22;36320;48.860;2.380;2023-04-24T00:21:20;12.20;75.00
4209;DHT22;36320;48.860;2.380;2023-04-24T00:23:47;12.20;75.10
4209;DHT22;36320;48.860;2.380;2023-04-24T00:26:13;12.20;75.40
4209;DHT22;36320;48.860;2.380;2023-04-24T00:28:39;12.20;75.30
4209;DHT22;36320;48.860;2.380;2023-04-24T00:31:05;12.20;75.40
4209;DHT22;36320;48.860;2.380;2023-04-24T00:33:31;12.20;75.50
4209;DHT22;36320;48.860;2.380;2023-04-24T00:35:56;12.20;75.60
4209;DHT22;36320;48.860;2.380;2023-04-24T00:38:22;12.20;75.40
4209;DHT22;36320;48.860;2.380;2023-04-24T00:40:48;12.20;75.60
4209;DHT22;36320;48.860;2.380;2023-04-24T00:43:16;12.30;75.70
4209;DHT22;36320;48.860;2.380;2023-04-24T00:45:42;12.20;75.40
4209;DHT22;36320;48.860;2.380;2023-04-24T00:48:08;12.10;75.70
4209;DHT22;36320;48.860;2.380;2023-04-24T00:50:36;12.10;76.00
4209;DHT22;36320;48.860;2.380;2023-04-24T00:53:01;12.10;76.10
4209;DHT22;36320;48.860;2.380;2023-04-24T00:55:27;12.20;76.20
4209;DHT22;36320;48.860;2.380;2023-04-24T00:57:53;12.10;75.90
4209;DHT22;36320;48.860;2.380;2023-04-24T01:00:19;12.00;76.20
4209;DHT22;36320;48.860;2.380;2023-04-24T01:02:45;12.10;76.20
4209;DHT22;36320;48.860;2.380;2023-04-24T01:05:12;12.10;76.20
4209;DHT22;36320;48.860;2.380;2023-04-24T01:07:39;12.10;76.20
4209;DHT22;36320;48.860;2.380;2023-04-24T01:10:07;12.20;76.20
4209;DHT22;36320;48.860;2.380;2023-04-24T01:12:34;12.00;76.10
4209;DHT22;36320;48.860;2.380;2023-04-24T01:15:01;12.10;76.20
4209;DHT22;36320;48.860;2.380;2023-04-24T01:17:26;12.00;76.20
4209;DHT22;36320;48.860;2.380;2023-04-24T01:19:52;12.10;76.40
4209;DHT22;36320;48.860;2.380;2023-04-24T01:22:25;12.30;76.30
4209;DHT22;36320;48.860;2.380;2023-04-24T01:24:51;12.30;75.90
4209;DHT22;36320;48.860;2.380;2023-04-24T01:27:19;12.20;75.70
4209;DHT22;36320;48.860;2.380;2023-04-24T01:29:45;12.10;76.10
4209;DHT22;36320;48.860;2.380;2023-04-24T01:32:11;12.10;76.10
4209;DHT22;36320;48.860;2.380;2023-04-24T01:34:37;12.10;76.90
4209;DHT22;36320;48.860;2.380;2023-04-24T01:37:03;12.10;76.30
4209;DHT22;36320;48.860;2.380;2023-04-24T01:39:30;12.00;76.40
4209;DHT22;36320;48.860;2.380;2023-04-24T01:41:56;11.90;76.50
4209;DHT22;36320;48.860;2.380;2023-04-24T01:44:23;12.00;76.80
4209;DHT22;36320;48.860;2.380;2023-04-24T01:46:48;12.00;76.70
4209;DHT22;36320;48.860;2.380;2023-04-24T01:49:14;12.00;76.60
4209;DHT22;36320;48.860;2.380;2023-04-24T01:51:40;12.00;76.70
4209;DHT22;36320;48.860;2.380;2023-04-24T01:54:06;12.10;76.60
4209;DHT22;36320;48.860;2.380;2023-04-24T01:56:34;12.10;76.50
4209;DHT22;36320;48.860;2.380;2023-04-24T01:59:03;12.00;76.50
4209;DHT22;36320;48.860;2.380;2023-04-24T02:01:36;12.10;76.70
4209;DHT22;36320;48.860;2.380;2023-04-24T02:04:03;12.00;76.60
4209;DHT22;36320;48.860;2.380;2023-04-24T02:06:28;11.90;76.60
4209;DHT22;36320;48.860;2.380;2023-04-24T02:08:58;11.90;76.80
4209;DHT22;36320;48.860;2.380;2023-04-24T02:11:24;12.00;76.90
4209;DHT22;36320;48.860;2.380;2023-04-24T02:13:50;12.00;76.90
4209;DHT22;36320;48.860;2.380;2023-04-24T02:16:17;12.00;76.70
4209;DHT22;36320;48.860;2.380;2023-04-24T02:18:42;11.90;76.80
4209;DHT22;36320;48.860;2.380;2023-04-24T02:21:09;12.10;77.10
4209;DHT22;36320;48.860;2.380;2023-04-24T02:23:35;11.90;76.60
4209;DHT22;36320;48.860;2.380;2023-04-24T02:26:01;12.00;76.70
4209;DHT22;36320;48.860;2.380;2023-04-24T02:28:27;12.00;76.80
4209;DHT22;36320;48.860;2.380;2023-04-24T02:30:52;12.00;76.80
4209;DHT22;36320;48.860;2.380;2023-04-24T02:33:18;12.10;77.00
4209;DHT22;36320;48.860;2.380;2023-04-24T02:35:44;12.10;76.80
4209;DHT22;36320;48.860;2.380;2023-04-24T02:38:10;12.00;76.80
4209;DHT22;36320;48.860;2.380;2023-04-24T02:40:35;12.00;76.80
4209;DHT22;36320;48.860;2.380;2023-04-24T02:43:01;12.00;76.90
4209;DHT22;36320;48.860;2.380;2023-04-24T02:45:27;12.00;77.10
4209;DHT22;36320;48.860;2.380;2023-04-24T02:47:52;12.00;77.10
4209;DHT22;36320;48.860;2.380;2023-04-24T02:50:18;12.00;77.20
4209;DHT22;36320;48.860;2.380;2023-04-24T02:52:44;12.00;77.10
4209;DHT22;36320;48.860;2.380;2023-04-24T02:55:10;12.00;77.10
4209;DHT22;36320;48.860;2.380;2023-04-24T02:57:35;12.00;77.10
4209;DHT22;36320;48.860;2.380;2023-04-24T03:00:01;12.00;77.20
4209;DHT22;36320;48.860;2.380;2023-04-24T03:02:28;12.10;77.10
4209;DHT22;36320;48.860;2.380;2023-04-24T03:04:55;12.00;76.80
4209;DHT22;36320;48.860;2.380;2023-04-24T03:07:20;12.10;76.90
4209;DHT22;36320;48.860;2.380;2023-04-24T03:09:47;12.10;77.00
4209;DHT22;36320;48.860;2.380;2023-04-24T03:12:13;12.10;77.00
4209;DHT22;36320;48.860;2.380;2023-04-24T03:14:38;12.20;77.20
4209;DHT22;36320;48.860;2.380;2023-04-24T03:17:04;12.20;77.10
4209;DHT22;36320;48.860;2.380;2023-04-24T03:19:30;12.20;76.90
4209;DHT22;36320;48.860;2.380;2023-04-24T03:21:56;12.10;77.10
4209;DHT22;36320;48.860;2.380;2023-04-24T03:24:23;12.20;77.20
4209;DHT22;36320;48.860;2.380;2023-04-24T03:26:50;12.20;77.10
4209;DHT22;36320;48.860;2.380;2023-04-24T03:29:16;12.20;77.10
4209;DHT22;36320;48.860;2.380;2023-04-24T03:31:41;12.10;77.00
4209;DHT22;36320;48.860;2.380;2023-04-24T03:34:07;12.00;77.20
4209;DHT22;36320;48.860;2.380;2023-04-24T03:36:33;12.00;77.40
4209;DHT22;36320;48.860;2.380;2023-04-24T03:38:58;12.00;77.30
4209;DHT22;36320;48.860;2.380;2023-04-24T03:41:24;12.00;77.20
4209;DHT22;36320;48.860;2.380;2023-04-24T03:43:50;12.00;77.20
4209;DHT22;36320;48.860;2.380;2023-04-24T03:46:16;12.00;77.30
4209;DHT22;36320;48.860;2.380;2023-04-24T03:48:42;12.10;77.50
4209;DHT22;36320;48.860;2.380;2023-04-24T03:51:07;12.10;77.30
4209;DHT22;36320;48.860;2.380;2023-04-24T03:53:33;12.00;77.20
4209;DHT22;36320;48.860;2.380;2023-04-24T03:55:58;12.00;77.40
4209;DHT22;36320;48.860;2.380;2023-04-24T03:58:24;12.20;77.40
4209;DHT22;36320;48.860;2.380;2023-04-24T04:00:50;12.10;77.30
4209;DHT22;36320;48.860;2.380;2023-04-24T04:03:16;12.10;78.00
4209;DHT22;36320;48.860;2.380;2023-04-24T04:05:42;12.00;77.40
4209;DHT22;36320;48.860;2.380;2023-04-24T04:08:07;12.10;77.70
4209;DHT22;36320;48.860;2.380;2023-04-24T04:10:33;12.20;77.70
4209;DHT22;36320;48.860;2.380;2023-04-24T04:12:59;12.20;77.30
4209;DHT22;36320;48.860;2.380;2023-04-24T04:15:25;12.10;77.30
4209;DHT22;36320;48.860;2.380;2023-04-24T04:17:51;11.90;77.70
4209;DHT22;36320;48.860;2.380;2023-04-24T04:20:18;12.00;77.80
4209;DHT22;36320;48.860;2.380;2023-04-24T04:22:44;12.20;77.90
4209;DHT22;36320;48.860;2.380;2023-04-24T04:25:09;12.20;77.80
4209;DHT22;36320;48.860;2.380;2023-04-24T04:27:36;12.10;77.60
4209;DHT22;36320;48.860;2.380;2023-04-24T04:30:03;12.10;77.60
4209;DHT22;36320;48.860;2.380;2023-04-24T04:32:34;12.10;77.90
4209;DHT22;36320;48.860;2.380;2023-04-24T04:35:00;12.10;77.90
4209;DHT22;36320;48.860;2.380;2023-04-24T04:37:30;12.00;78.00
4209;DHT22;36320;48.860;2.380;2023-04-24T04:39:57;12.10;77.80
4209;DHT22;36320;48.860;2.380;2023-04-24T04:42:26;12.10;78.70
4209;DHT22;36320;48.860;2.380;2023-04-24T04:44:53;12.10;78.80
4209;DHT22;36320;48.860;2.380;2023-04-24T04:47:21;12.10;78.10
4209;DHT22;36320;48.860;2.380;2023-04-24T04:49:48;12.10;78.10
4209;DHT22;36320;48.860;2.380;2023-04-24T04:52:15;12.10;78.10
4209;DHT22;36320;48.860;2.380;2023-04-24T04:54:43;12.30;78.10
4209;DHT22;36320;48.860;2.380;2023-04-24T04:57:08;12.20;77.80
4209;DHT22;36320;48.860;2.380;2023-04-24T04:59:34;12.20;77.80
4209;DHT22;36320;48.860;2.380;2023-04-24T05:02:00;12.20;77.80
4209;DHT22;36320;48.860;2.380;2023-04-24T05:04:26;12.10;77.90
4209;DHT22;36320;48.860;2.380;2023-04-24T05:06:52;12.20;78.20
4209;DHT22;36320;48.860;2.380;2023-04-24T05:09:18;12.30;78.20
4209;DHT22;36320;48.860;2.380;2023-04-24T05:11:44;12.40;78.00
4209;DHT22;36320;48.860;2.380;2023-04-24T05:14:10;12.40;77.80
4209;DHT22;36320;48.860;2.380;2023-04-24T05:16:36;12.40;77.70
4209;DHT22;36320;48.860;2.380;2023-04-24T05:19:02;12.60;77.80
4209;DHT22;36320;48.860;2.380;2023-04-24T05:21:28;12.50;77.30
4209;DHT22;36320;48.860;2.380;2023-04-24T05:23:54;12.50;77.40
4209;DHT22;36320;48.860;2.380;2023-04-24T05:26:20;12.50;77.60
4209;DHT22;36320;48.860;2.380;2023-04-24T05:28:46;12.60;77.50
4209;DHT22;36320;48.860;2.380;2023-04-24T05:31:12;12.60;77.20
4209;DHT22;36320;48.860;2.380;2023-04-24T05:33:37;12.60;77.20
4209;DHT22;36320;48.860;2.380;2023-04-24T05:36:03;12.70;77.40
4209;DHT22;36320;48.860;2.380;2023-04-24T05:38:30;12.90;77.20
4209;DHT22;36320;48.860;2.380;2023-04-24T05:40:56;12.80;77.00
4209;DHT22;36320;48.860;2.380;2023-04-24T05:43:22;12.70;77.00
4209;DHT22;36320;48.860;2.380;2023-04-24T05:45:48;12.60;77.00
4209;DHT22;36320;48.860;2.380;2023-04-24T05:48:13;12.70;77.20
4209;DHT22;36320;48.860;2.380;2023-04-24T05:50:39;12.90;77.90
4209;DHT22;36320;48.860;2.380;2023-04-24T05:53:05;12.90;77.00
4209;DHT22;36320;48.860;2.380;2023-04-24T05:55:32;12.90;77.10
4209;DHT22;36320;48.860;2.380;2023-04-24T05:57:58;12.80;77.00
4209;DHT22;36320;48.860;2.380;2023-04-24T06:00:25;12.90;77.00
4209;DHT22;36320;48.860;2.380;2023-04-24T06:02:51;13.10;76.90
4209;DHT22;36320;48.860;2.380;2023-04-24T06:05:18;13.10;76.80
4209;DHT22;36320;48.860;2.380;2023-04-24T06:07:44;13.10;76.50
4209;DHT22;36320;48.860;2.380;2023-04-24T06:10:10;13.00;76.40
4209;DHT22;36320;48.860;2.380;2023-04-24T06:12:36;13.00;76.80
4209;DHT22;36320;48.860;2.380;2023-04-24T06:15:02;13.10;76.70
4209;DHT22;36320;48.860;2.380;2023-04-24T06:17:28;13.20;77.40
4209;DHT22;36320;48.860;2.380;2023-04-24T06:19:53;13.30;76.40
4209;DHT22;36320;48.860;2.380;2023-04-24T06:22:19;13.30;76.40
4209;DHT22;36320;48.860;2.380;2023-04-24T06:24:45;13.40;76.50
4209;DHT22;36320;48.860;2.380;2023-04-24T06:27:13;13.40;76.50
4209;DHT22;36320;48.860;2.380;2023-04-24T06:29:39;13.40;76.10
4209;DHT22;36320;48.860;2.380;2023-04-24T06:32:06;13.50;76.20
4209;DHT22;36320;48.860;2.380;2023-04-24T06:34:32;13.30;76.00
4209;DHT22;36320;48.860;2.380;2023-04-24T06:36:59;13.40;76.40
4209;DHT22;36320;48.860;2.380;2023-04-24T06:39:25;13.50;76.20
4209;DHT22;36320;48.860;2.380;2023-04-24T06:41:52;13.50;76.00
4209;DHT22;36320;48.860;2.380;2023-04-24T06:44:21;13.40;75.90
4209;DHT22;36320;48.860;2.380;2023-04-24T06:46:47;13.40;76.10
4209;DHT22;36320;48.860;2.380;2023-04-24T06:49:12;13.30;76.20
4209;DHT22;36320;48.860;2.380;2023-04-24T06:51:41;13.20;76.60
4209;DHT22;36320;48.860;2.380;2023-04-24T06:54:06;12.40;75.60
4209;DHT22;36320;48.860;2.380;2023-04-24T06:56:32;13.30;76.30
4209;DHT22;36320;48.860;2.380;2023-04-24T06:58:59;13.30;76.50
4209;DHT22;36320;48.860;2.380;2023-04-24T07:01:25;13.50;76.80
4209;DHT22;36320;48.860;2.380;2023-04-24T07:03:51;13.70;76.30
4209;DHT22;36320;48.860;2.380;2023-04-24T07:06:17;13.70;76.10
4209;DHT22;36320;48.860;2.380;2023-04-24T07:08:44;13.70;75.90
4209;DHT22;36320;48.860;2.380;2023-04-24T07:11:09;14.00;76.10
4209;DHT22;36320;48.860;2.380;2023-04-24T07:13:35;14.10;75.40
4209;DHT22;36320;48.860;2.380;2023-04-24T07:16:04;14.10;74.90
4209;DHT22;36320;48.860;2.380;2023-04-24T07:18:30;14.00;75.00
4209;DHT22;36320;48.860;2.380;2023-04-24T07:20:56;14.10;74.80
4209;DHT22;36320;48.860;2.380;2023-04-24T07:23:21;14.30;74.80
4209;DHT22;36320;48.860;2.380;2023-04-24T07:25:47;14.20;74.20
4209;DHT22;36320;48.860;2.380;2023-04-24T07:28:13;14.40;74.10
4209;DHT22;36320;48.860;2.380;2023-04-24T07:30:38;14.40;73.70
4209;DHT22;36320;48.860;2.380;2023-04-24T07:33:04;14.40;73.50
4209;DHT22;36320;48.860;2.380;2023-04-24T07:35:30;14.40;73.80
4209;DHT22;36320;48.860;2.380;2023-04-24T07:37:55;14.50;73.50
4209;DHT22;36320;48.860;2.380;2023-04-24T07:40:22;14.30;73.40
4209;DHT22;36320;48.860;2.380;2023-04-24T07:42:48;14.20;73.20
4209;DHT22;36320;48.860;2.380;2023-04-24T07:45:14;14.30;73.60
4209;DHT22;36320;48.860;2.380;2023-04-24T07:47:44;15.40;74.70
4209;DHT22;36320;48.860;2.380;2023-04-24T07:50:11;14.20;73.50
4209;DHT22;36320;48.860;2.380;2023-04-24T07:52:38;14.40;73.50
4209;DHT22;36320;48.860;2.380;2023-04-24T07:55:04;14.60;73.10
4209;DHT22;36320;48.860;2.380;2023-04-24T07:57:30;14.70;73.00
4209;DHT22;36320;48.860;2.380;2023-04-24T07:59:55;14.50;73.00
4209;DHT22;36320;48.860;2.380;2023-04-24T08:02:21;14.70;73.10
4209;DHT22;36320;48.860;2.380;2023-04-24T08:04:52;14.60;72.70
4209;DHT22;36320;48.860;2.380;2023-04-24T08:07:19;14.70;72.60
4209;DHT22;36320;48.860;2.380;2023-04-24T08:09:45;14.60;72.40
4209;DHT22;36320;48.860;2.380;2023-04-24T08:12:10;14.40;72.70
4209;DHT22;36320;48.860;2.380;2023-04-24T08:14:36;14.30;73.10
4209;DHT22;36320;48.860;2.380;2023-04-24T08:17:02;14.30;73.30
4209;DHT22;36320;48.860;2.380;2023-04-24T08:19:28;14.20;73.30
4209;DHT22;36320;48.860;2.380;2023-04-24T08:21:54;14.20;73.50
4209;DHT22;36320;48.860;2.380;2023-04-24T08:24:20;14.50;73.70
4209;DHT22;36320;48.860;2.380;2023-04-24T08:26:46;14.60;73.10
4209;DHT22;36320;48.860;2.380;2023-04-24T08:29:12;14.60;72.80
4209;DHT22;36320;48.860;2.380;2023-04-24T08:31:37;14.70;73.10
4209;DHT22;36320;48.860;2.380;2023-04-24T08:34:03;14.80;72.80
4209;DHT22;36320;48.860;2.380;2023-04-24T08:36:29;15.20;72.60
4209;DHT22;36320;48.860;2.380;2023-04-24T08:38:56;15.40;72.00
4209;DHT22;36320;48.860;2.380;2023-04-24T08:41:21;15.40;72.10
4209;DHT22;36320;48.860;2.380;2023-04-24T08:43:50;15.50;71.10
4209;DHT22;36320;48.860;2.380;2023-04-24T08:46:17;15.70;70.90
4209;DHT22;36320;48.860;2.380;2023-04-24T08:48:44;15.80;70.20
4209;DHT22;36320;48.860;2.380;2023-04-24T08:51:10;16.00;69.90
4209;DHT22;36320;48.860;2.380;2023-04-24T08:53:37;16.10;69.70
4209;DHT22;36320;48.860;2.380;2023-04-24T08:56:03;16.20;69.30
4209;DHT22;36320;48.860;2.380;2023-04-24T08:58:29;16.30;69.10
4209;DHT22;36320;48.860;2.380;2023-04-24T09:00:56;16.50;68.70
4209;DHT22;36320;48.860;2.380;2023-04-24T09:03:23;16.50;68.30
4209;DHT22;36320;48.860;2.380;2023-04-24T09:05:49;17.60;69.30
4209;DHT22;36320;48.860;2.380;2023-04-24T09:08:18;16.00;67.90
4209;DHT22;36320;48.860;2.380;2023-04-24T09:10:44;16.00;68.20
4209;DHT22;36320;48.860;2.380;2023-04-24T09:13:10;15.90;68.00
4209;DHT22;36320;48.860;2.380;2023-04-24T09:15:37;16.20;68.30
4209;DHT22;36320;48.860;2.380;2023-04-24T09:18:06;16.20;67.90
4209;DHT22;36320;48.860;2.380;2023-04-24T09:20:35;16.20;67.80
4209;DHT22;36320;48.860;2.380;2023-04-24T09:23:26;16.20;67.50
4209;DHT22;36320;48.860;2.380;2023-04-24T09:25:55;16.10;67.70
4209;DHT22;36320;48.860;2.380;2023-04-24T09:28:35;15.90;67.50
4209;DHT22;36320;48.860;2.380;2023-04-24T09:31:15;15.90;67.80
4209;DHT22;36320;48.860;2.380;2023-04-24T09:34:03;15.90;67.80
4209;DHT22;36320;48.860;2.380;2023-04-24T09:36:39;16.00;68.20
4209;DHT22;36320;48.860;2.380;2023-04-24T09:39:07;16.00;67.60
4209;DHT22;36320;48.860;2.380;2023-04-24T09:41:44;16.30;67.40
4209;DHT22;36320;48.860;2.380;2023-04-24T09:44:16;16.40;67.00
4209;DHT22;36320;48.860;2.380;2023-04-24T09:46:43;16.40;66.50
4209;DHT22;36320;48.860;2.380;2023-04-24T09:49:14;16.50;66.50
4209;DHT22;36320;48.860;2.380;2023-04-24T09:51:42;16.40;66.50
4209;DHT22;36320;48.860;2.380;2023-04-24T09:54:19;16.60;66.60
4209;DHT22;36320;48.860;2.380;2023-04-24T09:56:48;16.60;65.60
4209;DHT22;36320;48.860;2.380;2023-04-24T09:59:15;16.80;65.70
4209;DHT22;36320;48.860;2.380;2023-04-24T10:01:41;16.90;65.30
4209;DHT22;36320;48.860;2.380;2023-04-24T10:04:18;17.00;65.00
4209;DHT22;36320;48.860;2.380;2023-04-24T10:06:44;16.70;64.80
4209;DHT22;36320;48.860;2.380;2023-04-24T10:09:15;16.60;65.10
4209;DHT22;36320;48.860;2.380;2023-04-24T10:11:42;16.60;65.10
4209;DHT22;36320;48.860;2.380;2023-04-24T10:14:15;16.80;65.00
4209;DHT22;36320;48.860;2.380;2023-04-24T10:16:43;16.90;64.90
4209;DHT22;36320;48.860;2.380;2023-04-24T10:19:09;17.00;64.50
4209;DHT22;36320;48.860;2.380;2023-04-24T10:21:36;17.30;64.00
4209;DHT22;36320;48.860;2.380;2023-04-24T10:24:08;17.30;63.60
4209;DHT22;36320;48.860;2.380;2023-04-24T10:26:35;17.60;63.40
4209;DHT22;36320;48.860;2.380;2023-04-24T10:29:01;17.70;62.60
4209;DHT22;36320;48.860;2.380;2023-04-24T10:31:31;18.00;62.10
4209;DHT22;36320;48.860;2.380;2023-04-24T10:33:57;17.80;60.90
4209;DHT22;36320;48.860;2.380;2023-04-24T10:36:24;18.10;61.20
4209;DHT22;36320;48.860;2.380;2023-04-24T10:38:53;18.40;60.50
4209;DHT22;36320;48.860;2.380;2023-04-24T10:41:20;18.50;59.90
4209;DHT22;36320;48.860;2.380;2023-04-24T10:43:48;18.30;59.60
4209;DHT22;36320;48.860;2.380;2023-04-24T10:46:30;18.10;59.50
4209;DHT22;36320;48.860;2.380;2023-04-24T10:48:57;17.90;59.60
4209;DHT22;36320;48.860;2.380;2023-04-24T10:51:26;17.90;59.80
4209;DHT22;36320;48.860;2.380;2023-04-24T10:59:50;17.70;59.50
4209;DHT22;36320;48.860;2.380;2023-04-24T11:02:17;17.20;59.30
4209;DHT22;36320;48.860;2.380;2023-04-24T11:04:44;17.30;59.90
4209;DHT22;36320;48.860;2.380;2023-04-24T11:07:11;17.30;59.80
4209;DHT22;36320;48.860;2.380;2023-04-24T11:09:37;17.70;60.00
4209;DHT22;36320;48.860;2.380;2023-04-24T11:12:10;17.90;59.10
4209;DHT22;36320;48.860;2.380;2023-04-24T11:17:47;18.30;58.70
4209;DHT22;36320;48.860;2.380;2023-04-24T11:20:17;17.50;58.20
4209;DHT22;36320;48.860;2.380;2023-04-24T11:22:43;17.30;58.60
4209;DHT22;36320;48.860;2.380;2023-04-24T11:25:09;17.50;58.90
4209;DHT22;36320;48.860;2.380;2023-04-24T11:27:44;18.00;58.50
4209;DHT22;36320;48.860;2.380;2023-04-24T11:30:17;18.30;57.70
4209;DHT22;36320;48.860;2.380;2023-04-24T11:32:47;18.40;57.70
4209;DHT22;36320;48.860;2.380;2023-04-24T11:35:17;18.50;57.20
4209;DHT22;36320;48.860;2.380;2023-04-24T11:37:48;18.50;57.30
4209;DHT22;36320;48.860;2.380;2023-04-24T11:40:16;18.70;57.20
4209;DHT22;36320;48.860;2.380;2023-04-24T11:42:45;18.50;56.70
4209;DHT22;36320;48.860;2.380;2023-04-24T11:45:16;18.50;56.60
4209;DHT22;36320;48.860;2.380;2023-04-24T11:47:43;18.50;56.50
4209;DHT22;36320;48.860;2.380;2023-04-24T11:50:12;18.40;56.30
4209;DHT22;36320;48.860;2.380;2023-04-24T11:52:45;18.20;56.20
4209;DHT22;36320;48.860;2.380;2023-04-24T11:57:41;18.40;56.50
4209;DHT22;36320;48.860;2.380;2023-04-24T12:00:19;18.30;56.20
4209;DHT22;36320;48.860;2.380;2023-04-24T12:02:45;18.20;56.40
4209;DHT22;36320;48.860;2.380;2023-04-24T12:05:26;18.20;55.50
4209;DHT22;36320;48.860;2.380;2023-04-24T12:07:53;18.60;55.40
4209;DHT22;36320;48.860;2.380;2023-04-24T12:10:23;19.20;54.60
4209;DHT22;36320;48.860;2.380;2023-04-24T12:12:50;19.30;53.70
4209;DHT22;36320;48.860;2.380;2023-04-24T12:15:18;19.10;53.50
4209;DHT22;36320;48.860;2.380;2023-04-24T12:17:44;19.10;53.50
4209;DHT22;36320;48.860;2.380;2023-04-24T12:20:10;19.30;52.90
4209;DHT22;36320;48.860;2.380;2023-04-24T12:22:50;19.60;52.30
4209;DHT22;36320;48.860;2.380;2023-04-24T12:25:28;19.70;51.60
4209;DHT22;36320;48.860;2.380;2023-04-24T12:30:29;18.80;51.10
4209;DHT22;36320;48.860;2.380;2023-04-24T12:32:58;18.30;51.00
4209;DHT22;36320;48.860;2.380;2023-04-24T12:35:25;18.40;51.50
4209;DHT22;36320;48.860;2.380;2023-04-24T12:37:51;18.20;51.40
4209;DHT22;36320;48.860;2.380;2023-04-24T12:40:19;18.30;51.70
4209;DHT22;36320;48.860;2.380;2023-04-24T12:42:47;18.60;51.80
4209;DHT22;36320;48.860;2.380;2023-04-24T12:45:14;18.60;51.50
4209;DHT22;36320;48.860;2.380;2023-04-24T12:47:40;18.30;51.50
4209;DHT22;36320;48.860;2.380;2023-04-24T12:50:11;18.10;52.10
4209;DHT22;36320;48.860;2.380;2023-04-24T12:52:37;17.90;52.60
4209;DHT22;36320;48.860;2.380;2023-04-24T12:55:04;17.70;52.90
4209;DHT22;36320;48.860;2.380;2023-04-24T12:57:33;17.60;54.20
4209;DHT22;36320;48.860;2.380;2023-04-24T13:00:00;17.30;54.90
4209;DHT22;36320;48.860;2.380;2023-04-24T13:02:28;17.20;56.00
4209;DHT22;36320;48.860;2.380;2023-04-24T13:04:54;17.10;56.50
4209;DHT22;36320;48.860;2.380;2023-04-24T13:07:21;17.20;56.60
4209;DHT22;36320;48.860;2.380;2023-04-24T13:09:47;17.50;56.50
4209;DHT22;36320;48.860;2.380;2023-04-24T13:12:14;17.90;56.20
4209;DHT22;36320;48.860;2.380;2023-04-24T13:14:39;18.30;55.50
4209;DHT22;36320;48.860;2.380;2023-04-24T13:17:05;18.30;55.00
4209;DHT22;36320;48.860;2.380;2023-04-24T13:19:36;18.00;54.50
4209;DHT22;36320;48.860;2.380;2023-04-24T13:22:03;17.80;54.70
4209;DHT22;36320;48.860;2.380;2023-04-24T13:24:30;17.60;54.70
4209;DHT22;36320;48.860;2.380;2023-04-24T13:26:57;17.30;54.80
4209;DHT22;36320;48.860;2.380;2023-04-24T13:29:23;17.20;55.20
4209;DHT22;36320;48.860;2.380;2023-04-24T13:31:53;17.30;55.10
4209;DHT22;36320;48.860;2.380;2023-04-24T13:34:23;17.50;55.20
4209;DHT22;36320;48.860;2.380;2023-04-24T13:36:50;17.40;54.70
4209;DHT22;36320;48.860;2.380;2023-04-24T13:39:16;17.50;54.00
4209;DHT22;36320;48.860;2.380;2023-04-24T13:41:42;17.60;53.40
4209;DHT22;36320;48.860;2.380;2023-04-24T13:44:08;18.10;53.20
4209;DHT22;36320;48.860;2.380;2023-04-24T13:46:34;18.50;53.00
4209;DHT22;36320;48.860;2.380;2023-04-24T13:49:02;18.90;51.90
4209;DHT22;36320;48.860;2.380;2023-04-24T13:51:29;19.00;50.50
4209;DHT22;36320;48.860;2.380;2023-04-24T13:53:55;18.70;49.60
4209;DHT22;36320;48.860;2.380;2023-04-24T13:56:21;18.90;50.10
4209;DHT22;36320;48.860;2.380;2023-04-24T13:58:47;19.00;48.90
4209;DHT22;36320;48.860;2.380;2023-04-24T14:01:13;19.40;48.90
4209;DHT22;36320;48.860;2.380;2023-04-24T14:03:40;19.80;48.70
4209;DHT22;36320;48.860;2.380;2023-04-24T14:06:06;19.70;48.70
4209;DHT22;36320;48.860;2.380;2023-04-24T14:08:34;19.70;48.70
4209;DHT22;36320;48.860;2.380;2023-04-24T14:11:00;19.60;48.70
4209;DHT22;36320;48.860;2.380;2023-04-24T14:13:25;19.50;48.40
4209;DHT22;36320;48.860;2.380;2023-04-24T14:15:51;19.20;48.10
4209;DHT22;36320;48.860;2.380;2023-04-24T14:18:19;19.10;48.60
4209;DHT22;36320;48.860;2.380;2023-04-24T14:20:45;19.10;48.40
4209;DHT22;36320;48.860;2.380;2023-04-24T14:23:11;19.40;48.30
4209;DHT22;36320;48.860;2.380;2023-04-24T14:25:37;19.90;48.00
4209;DHT22;36320;48.860;2.380;2023-04-24T14:28:03;19.90;47.20
4209;DHT22;36320;48.860;2.380;2023-04-24T14:30:29;20.00;47.20
4209;DHT22;36320;48.860;2.380;2023-04-24T14:32:54;20.50;46.80
4209;DHT22;36320;48.860;2.380;2023-04-24T14:35:20;20.70;46.50
4209;DHT22;36320;48.860;2.380;2023-04-24T14:37:46;20.60;45.90
4209;DHT22;36320;48.860;2.380;2023-04-24T14:40:13;20.60;45.90
4209;DHT22;36320;48.860;2.380;2023-04-24T14:42:39;20.50;46.10
4209;DHT22;36320;48.860;2.380;2023-04-24T14:45:06;20.60;45.90
4209;DHT22;36320;48.860;2.380;2023-04-24T14:47:33;20.90;46.10
4209;DHT22;36320;48.860;2.380;2023-04-24T14:49:59;20.90;45.10
4209;DHT22;36320;48.860;2.380;2023-04-24T14:52:25;20.40;45.50
4209;DHT22;36320;48.860;2.380;2023-04-24T14:54:50;20.30;45.20
4209;DHT22;36320;48.860;2.380;2023-04-24T14:57:16;20.60;45.00
4209;DHT22;36320;48.860;2.380;2023-04-24T14:59:42;20.80;44.30
4209;DHT22;36320;48.860;2.380;2023-04-24T15:02:07;20.70;43.60
4209;DHT22;36320;48.860;2.380;2023-04-24T15:04:33;20.10;43.60
4209;DHT22;36320;48.860;2.380;2023-04-24T15:06:59;19.50;44.00
4209;DHT22;36320;48.860;2.380;2023-04-24T15:09:25;19.20;44.30
4209;DHT22;36320;48.860;2.380;2023-04-24T15:11:52;18.90;44.90
4209;DHT22;36320;48.860;2.380;2023-04-24T15:14:20;18.80;45.40
4209;DHT22;36320;48.860;2.380;2023-04-24T15:16:47;18.60;46.00
4209;DHT22;36320;48.860;2.380;2023-04-24T15:19:13;18.50;46.80
4209;DHT22;36320;48.860;2.380;2023-04-24T15:21:39;18.20;47.90
4209;DHT22;36320;48.860;2.380;2023-04-24T15:24:06;17.90;49.00
4209;DHT22;36320;48.860;2.380;2023-04-24T15:26:32;17.70;50.20
4209;DHT22;36320;48.860;2.380;2023-04-24T15:28:58;17.60;50.40
4209;DHT22;36320;48.860;2.380;2023-04-24T15:31:24;17.60;50.60
4209;DHT22;36320;48.860;2.380;2023-04-24T15:33:50;17.60;50.70
4209;DHT22;36320;48.860;2.380;2023-04-24T15:36:16;17.50;50.50
4209;DHT22;36320;48.860;2.380;2023-04-24T15:38:43;17.60;50.30
4209;DHT22;36320;48.860;2.380;2023-04-24T15:41:09;17.80;50.50
4209;DHT22;36320;48.860;2.380;2023-04-24T15:43:36;17.60;49.10
4209;DHT22;36320;48.860;2.380;2023-04-24T15:46:02;17.90;49.10
4209;DHT22;36320;48.860;2.380;2023-04-24T15:48:29;18.40;48.80
4209;DHT22;36320;48.860;2.380;2023-04-24T15:50:54;19.30;48.50
4209;DHT22;36320;48.860;2.380;2023-04-24T15:53:20;24.50;47.80
4209;DHT22;36320;48.860;2.380;2023-04-24T15:55:49;30.50;39.50
4209;DHT22;36320;48.860;2.380;2023-04-24T15:58:16;34.70;34.90